Time;durP1;ratioP1;P1;durP2;ratioP2;P2;SDS_P1;SDS_P2;PMS_P1;PMS_P2;Temp;Humidity;BMP_temperature;BMP_pressure;BME280_temperature;BME280_humidity;BME280_pressure;Samples;Min_cycle;Max_cycle;Signal;HPM_P1;HPM_P2
2022/11/09 00:01:09;;;;;;;16.55;8.05;;;;;;;9.25;79.25;99268.47;4272306;80;28425;-83
2022/11/09 00:07:10;;;;;;;20.20;8.75;;;;;;;9.36;78.75;99278.50;4293262;82;28492;-84
2022/11/09 00:13:11;;;;;;;18.70;8.30;;;;;;;9.04;78.59;99269.91;4273014;80;28481;-84
2022/11/09 00:19:12;;;;;;;16.97;8.38;;;;;;;8.99;77.94;99280.48;4242085;81;28469;-83
2022/11/09 00:25:14;;;;;;;16.10;8.65;;;;;;;8.40;81.77;99278.33;4274762;81;28422;-83
2022/11/09 00:31:20;;;;;;;18.17;8.93;;;;;;;8.53;83.09;99276.13;4292188;81;28504;-83
2022/11/09 00:37:21;;;;;;;17.27;8.90;;;;;;;8.30;82.96;99271.55;4296767;81;46141;-86
2022/11/09 00:43:22;;;;;;;18.80;8.78;;;;;;;8.37;83.13;99266.17;4274564;82;28551;-85
2022/11/09 00:49:24;;;;;;;16.23;8.15;;;;;;;8.09;83.90;99277.47;4213373;82;28456;-86
2022/11/09 00:55:26;;;;;;;17.15;9.30;;;;;;;7.81;82.40;99278.52;4242757;82;28499;-87
2022/11/09 01:01:28;;;;;;;21.07;9.85;;;;;;;7.85;85.19;99274.09;4235609;82;28479;-86
2022/11/09 01:07:29;;;;;;;25.05;10.65;;;;;;;7.94;84.99;99282.22;4204147;82;28456;-85
2022/11/09 01:13:30;;;;;;;18.23;9.80;;;;;;;8.00;85.42;99283.23;4198247;82;28501;-81
2022/11/09 01:19:32;;;;;;;20.97;10.72;;;;;;;7.85;85.46;99278.94;4200155;82;28518;-82
2022/11/09 01:25:33;;;;;;;27.02;12.37;;;;;;;7.83;85.59;99271.64;4180156;83;28562;-82
2022/11/09 01:31:34;;;;;;;24.45;11.33;;;;;;;8.00;86.77;99263.16;4176218;83;28463;-83
2022/11/09 01:37:36;;;;;;;21.30;11.18;;;;;;;7.85;86.43;99261.54;4168008;83;28512;-83
2022/11/09 01:43:38;;;;;;;20.60;10.85;;;;;;;7.68;84.50;99257.94;4246617;82;28512;-82
2022/11/09 01:49:54;;;;;;;24.92;12.53;;;;;;;7.89;84.64;99255.26;4278118;80;28459;-83
2022/11/09 01:56:00;;;;;;;28.38;15.05;;;;;;;7.75;84.82;99246.41;4207632;83;28481;-83
2022/11/09 02:02:02;;;;;;;27.58;14.38;;;;;;;7.52;89.26;99249.81;4237880;83;28562;-83
2022/11/09 02:08:05;;;;;;;32.83;17.17;;;;;;;7.45;88.45;99236.13;4235496;83;28480;-83
2022/11/09 02:14:07;;;;;;;25.25;12.63;;;;;;;7.50;88.89;99237.69;4215505;84;28515;-84
2022/11/09 02:20:11;;;;;;;26.35;13.55;;;;;;;7.48;87.16;99239.22;4220906;83;28507;-86
2022/11/09 02:26:24;;;;;;;29.98;15.38;;;;;;;7.43;85.91;99244.35;4214067;82;28455;-84
2022/11/09 02:32:28;;;;;;;37.00;18.70;;;;;;;7.67;85.94;99240.23;4227605;82;28506;-85
2022/11/09 02:38:30;;;;;;;28.15;16.12;;;;;;;7.60;87.14;99241.27;4241237;83;28433;-86
2022/11/09 02:44:37;;;;;;;27.48;15.95;;;;;;;7.74;83.11;99240.76;4228025;83;28468;-87
2022/11/09 02:50:38;;;;;;;33.63;16.70;;;;;;;7.62;83.47;99237.88;4236248;81;28484;-85
2022/11/09 02:56:40;;;;;;;28.27;15.43;;;;;;;7.75;83.29;99229.83;4235886;84;28501;-86
2022/11/09 03:02:43;;;;;;;29.23;16.02;;;;;;;7.83;79.75;99227.47;4236622;83;28459;-86
2022/11/09 03:08:45;;;;;;;32.78;18.17;;;;;;;7.85;79.90;99228.08;4236261;84;28463;-86
2022/11/09 03:14:48;;;;;;;32.05;16.90;;;;;;;7.55;82.86;99232.53;4211680;83;28435;-83
2022/11/09 03:20:50;;;;;;;34.83;16.60;;;;;;;7.22;81.85;99230.14;4226486;83;28539;-83
2022/11/09 03:26:51;;;;;;;31.23;16.65;;;;;;;7.36;81.87;99233.66;4230028;83;28877;-82
2022/11/09 03:33:02;;;;;;;30.82;15.93;;;;;;;7.15;81.74;99232.01;4228928;83;28470;-83
2022/11/09 03:39:03;;;;;;;30.88;16.48;;;;;;;7.49;80.04;99233.34;4209782;82;28466;-80
2022/11/09 03:45:07;;;;;;;31.90;16.12;;;;;;;7.13;82.54;99236.71;4198350;83;28520;-80
2022/11/09 03:51:08;;;;;;;28.87;15.58;;;;;;;7.01;84.20;99218.29;4222247;82;28477;-84
2022/11/09 03:57:10;;;;;;;28.73;15.13;;;;;;;6.77;83.37;99218.67;4237847;82;28553;-84
2022/11/09 04:03:11;;;;;;;30.20;16.77;;;;;;;7.58;82.30;99223.27;4214262;82;28468;-84
2022/11/09 04:09:13;;;;;;;28.32;16.37;;;;;;;7.49;84.05;99227.48;4215033;82;28436;-84
2022/11/09 04:15:14;;;;;;;32.88;18.92;;;;;;;6.91;83.14;99229.39;4220739;82;28591;-83
2022/11/09 04:21:16;;;;;;;33.88;19.25;;;;;;;6.99;85.66;99230.55;4245286;82;28904;-84
2022/11/09 04:27:17;;;;;;;30.35;18.23;;;;;;;6.98;85.48;99222.22;4254413;82;28503;-84
2022/11/09 04:33:18;;;;;;;35.35;19.35;;;;;;;6.74;84.77;99224.41;4262290;82;28466;-83
2022/11/09 04:39:19;;;;;;;36.48;18.77;;;;;;;6.82;84.56;99218.88;4242104;82;28475;-84
2022/11/09 04:45:21;;;;;;;33.02;18.50;;;;;;;6.69;84.08;99214.31;4245359;83;28460;-82
2022/11/09 04:51:22;;;;;;;32.55;17.77;;;;;;;6.68;83.84;99215.34;4278421;81;28502;-80
2022/11/09 04:57:24;;;;;;;32.90;18.48;;;;;;;6.52;84.18;99223.20;4371274;80;28485;-81
2022/11/09 05:03:25;;;;;;;28.38;16.65;;;;;;;6.52;84.44;99215.72;4335906;80;28455;-82
2022/11/09 05:09:27;;;;;;;32.93;18.05;;;;;;;6.47;84.37;99218.15;4322442;80;28500;-81
2022/11/09 05:15:29;;;;;;;30.50;16.60;;;;;;;6.52;85.32;99213.05;4320261;81;28465;-82
2022/11/09 05:21:30;;;;;;;28.27;15.93;;;;;;;6.30;84.14;99207.83;4293016;81;28543;-81
2022/11/09 05:27:31;;;;;;;26.05;14.15;;;;;;;6.28;82.64;99217.86;4352409;81;28460;-85
2022/11/09 05:33:33;;;;;;;27.30;15.23;;;;;;;6.31;86.64;99210.81;4279002;82;28501;-89
2022/11/09 05:39:34;;;;;;;26.50;13.18;;;;;;;6.35;86.46;99209.37;4331927;81;28583;-86
2022/11/09 05:45:35;;;;;;;27.00;14.73;;;;;;;6.31;86.87;99220.66;4303924;80;28538;-85
2022/11/09 05:51:37;;;;;;;27.25;13.88;;;;;;;6.23;85.92;99217.65;4247269;81;28463;-84
2022/11/09 05:57:38;;;;;;;25.57;13.58;;;;;;;6.63;85.80;99225.83;4216828;83;28483;-83
2022/11/09 06:03:42;;;;;;;24.90;14.35;;;;;;;6.76;85.05;99219.67;4199280;83;28458;-75
2022/11/09 06:09:43;;;;;;;24.95;13.90;;;;;;;6.65;85.66;99223.77;4195049;82;28472;-75
2022/11/09 06:15:52;;;;;;;31.60;16.40;;;;;;;6.85;83.47;99223.00;4201038;83;28593;-75
2022/11/09 06:21:55;;;;;;;28.42;14.80;;;;;;;6.93;85.31;99228.17;4225612;83;28603;-75
2022/11/09 06:27:59;;;;;;;31.53;15.07;;;;;;;7.19;83.01;99226.55;4220805;84;28444;-76
2022/11/09 06:34:02;;;;;;;29.55;14.87;;;;;;;7.16;84.02;99231.47;4236674;82;28502;-77
2022/11/09 06:40:04;;;;;;;27.00;14.20;;;;;;;7.19;85.50;99240.45;4173993;83;28489;-78
2022/11/09 06:46:09;;;;;;;27.87;14.83;;;;;;;7.23;84.96;99240.34;4192359;83;28449;-81
2022/11/09 06:52:11;;;;;;;28.20;15.33;;;;;;;7.57;85.13;99235.81;4235384;80;37729;-80
2022/11/09 06:58:18;;;;;;;29.32;16.35;;;;;;;7.67;84.72;99239.43;4288435;79;28484;-78
2022/11/09 07:04:19;;;;;;;30.15;17.30;;;;;;;7.98;84.91;99247.31;4311328;81;28488;-78
2022/11/09 07:10:21;;;;;;;31.40;16.32;;;;;;;8.08;86.56;99234.82;4304205;80;28525;-78
2022/11/09 07:16:22;;;;;;;38.42;19.45;;;;;;;8.07;86.00;99239.37;4317755;79;28461;-77
2022/11/09 07:22:23;;;;;;;32.08;19.95;;;;;;;8.31;89.25;99228.99;4319460;81;28501;-78
2022/11/09 07:28:24;;;;;;;40.03;20.35;;;;;;;8.57;87.65;99231.28;4326098;80;28487;-78
2022/11/09 07:34:28;;;;;;;35.98;18.45;;;;;;;8.88;87.29;99231.55;4369435;79;28476;-78
2022/11/09 07:40:30;;;;;;;37.60;20.20;;;;;;;8.95;89.19;99230.17;4301327;80;28568;-79
2022/11/09 07:46:31;;;;;;;43.23;20.92;;;;;;;9.15;88.30;99234.88;4335626;80;28506;-78
2022/11/09 07:52:33;;;;;;;37.17;21.00;;;;;;;9.53;91.35;99231.81;4277127;80;28534;-77
2022/11/09 07:58:35;;;;;;;39.13;21.60;;;;;;;9.78;89.90;99226.13;4135581;84;28559;-83
2022/11/09 08:04:37;;;;;;;40.20;22.48;;;;;;;10.15;90.85;99222.12;4075454;85;28503;-83
2022/11/09 08:10:39;;;;;;;40.50;21.70;;;;;;;10.71;90.21;99208.13;4081225;85;28492;-84
2022/11/09 08:16:40;;;;;;;39.00;22.07;;;;;;;10.90;90.03;99204.59;4095604;85;28497;-84
2022/11/09 08:22:43;;;;;;;39.08;21.52;;;;;;;11.16;90.58;99206.86;4092887;85;28479;-85
2022/11/09 08:28:45;;;;;;;39.25;21.27;;;;;;;11.24;90.27;99205.70;4194735;82;28507;-84
2022/11/09 08:34:47;;;;;;;35.60;20.97;;;;;;;11.58;87.48;99206.51;4208791;82;28627;-84
2022/11/09 08:40:57;;;;;;;37.20;20.30;;;;;;;11.66;88.33;99198.09;4221762;82;28486;-84
2022/11/09 08:46:58;;;;;;;33.30;18.92;;;;;;;11.93;87.50;99192.23;4225051;82;28535;-83
2022/11/09 08:53:04;;;;;;;36.73;19.60;;;;;;;12.22;84.71;99182.06;4241519;82;28577;-84
2022/11/09 08:59:05;;;;;;;35.80;20.07;;;;;;;12.39;83.27;99187.52;4328890;80;38841;-84
2022/11/09 09:05:07;;;;;;;37.60;20.88;;;;;;;12.49;85.01;99186.37;4339371;79;28462;-82
2022/11/09 09:11:09;;;;;;;36.70;20.15;;;;;;;12.73;84.88;99180.06;4309274;79;28549;-84
2022/11/09 09:17:10;;;;;;;38.00;20.70;;;;;;;13.03;83.78;99179.78;4331815;80;28469;-84
2022/11/09 09:23:15;;;;;;;33.35;18.75;;;;;;;13.41;81.80;99184.16;4365870;79;28527;-84
2022/11/09 09:29:29;;;;;;;33.33;18.50;;;;;;;13.70;80.06;99180.59;4358027;80;28852;-83
2022/11/09 09:35:33;;;;;;;36.45;19.37;;;;;;;13.91;77.10;99167.64;4350330;80;28525;-85
2022/11/09 09:41:42;;;;;;;26.60;15.00;;;;;;;14.38;75.92;99159.28;4365930;79;28462;-84
2022/11/09 09:48:01;;;;;;;28.75;15.48;;;;;;;14.49;73.21;99165.08;4353183;79;28493;-82
2022/11/09 09:54:19;;;;;;;27.75;16.30;;;;;;;14.82;71.26;99164.63;4309188;80;28485;-82
2022/11/09 10:00:25;;;;;;;31.10;16.35;;;;;;;15.22;70.27;99158.45;4274455;81;28503;-83
2022/11/09 10:06:57;;;;;;;29.40;15.90;;;;;;;15.07;69.36;99151.58;4265990;80;28436;-83
2022/11/09 10:13:26;;;;;;;26.68;15.85;;;;;;;15.40;69.17;99143.69;4232775;82;28489;-83
2022/11/09 10:19:48;;;;;;;30.37;15.15;;;;;;;15.64;68.78;99148.73;4248351;82;28542;-82
2022/11/09 10:25:55;;;;;;;28.42;15.20;;;;;;;16.09;67.81;99145.20;4233156;81;28490;-83
2022/11/09 10:32:11;;;;;;;28.40;15.32;;;;;;;16.12;66.65;99137.05;4261803;81;28588;-79
2022/11/09 10:38:20;;;;;;;24.65;14.73;;;;;;;16.50;66.07;99132.81;4231256;82;28517;-79
2022/11/09 10:44:40;;;;;;;25.92;14.20;;;;;;;16.71;64.53;99141.30;4218536;82;28531;-81
2022/11/09 10:51:00;;;;;;;23.27;14.10;;;;;;;17.05;64.44;99140.53;4235142;80;28503;-81
2022/11/09 10:57:23;;;;;;;26.45;14.13;;;;;;;16.91;63.59;99139.66;4130644;83;28533;-76
2022/11/09 11:03:44;;;;;;;25.43;12.65;;;;;;;16.98;61.91;99136.70;4136938;83;28482;-84
2022/11/09 11:10:17;;;;;;;22.02;12.03;;;;;;;16.51;62.54;99137.98;4159041;83;28489;-85
2022/11/09 11:16:45;;;;;;;23.42;12.60;;;;;;;16.92;62.81;99135.89;4315173;81;28605;-84
2022/11/09 11:23:13;;;;;;;16.60;10.38;;;;;;;16.99;63.06;99124.75;4280782;82;28461;-85
2022/11/09 11:29:52;;;;;;;20.40;10.90;;;;;;;16.85;62.72;99125.83;4154230;83;28592;-85
2022/11/09 11:36:33;;;;;;;17.73;11.03;;;;;;;17.00;62.08;99128.56;4156714;83;28495;-85
2022/11/09 11:43:07;;;;;;;19.90;11.48;;;;;;;16.86;61.84;99123.38;4142360;84;28501;-83
2022/11/09 11:49:50;;;;;;;17.42;9.98;;;;;;;16.98;61.81;99122.56;4121206;85;28547;-86
2022/11/09 11:56:18;;;;;;;15.48;8.85;;;;;;;16.92;61.56;99117.41;4219462;83;28565;-82
2022/11/09 12:02:58;;;;;;;16.50;9.40;;;;;;;16.85;60.61;99122.55;4158276;84;28513;-82
2022/11/09 12:09:51;;;;;;;16.25;9.65;;;;;;;16.91;59.79;99123.92;4169788;83;28545;-83
2022/11/09 12:16:16;;;;;;;16.27;9.03;;;;;;;17.17;59.89;99122.05;4258425;82;28531;-83
2022/11/09 12:22:56;;;;;;;15.70;8.27;;;;;;;17.21;58.61;99111.45;4315957;80;28582;-82
2022/11/09 12:29:24;;;;;;;15.78;8.13;;;;;;;17.46;59.52;99107.88;4313169;80;28472;-82
2022/11/09 12:35:56;;;;;;;19.00;8.93;;;;;;;17.57;59.05;99101.86;4361213;80;28495;-82
2022/11/09 12:42:28;;;;;;;16.10;8.00;;;;;;;17.43;58.91;99107.05;4333683;80;28501;-82
2022/11/09 12:48:48;;;;;;;11.00;6.40;;;;;;;17.35;58.45;99103.56;4353416;80;28503;-86
2022/11/09 12:55:13;;;;;;;11.40;6.22;;;;;;;17.32;57.21;99108.16;4302788;80;28534;-86
2022/11/09 13:01:39;;;;;;;11.57;6.28;;;;;;;17.26;56.99;99107.36;4263086;82;28522;-86
2022/11/09 13:08:02;;;;;;;10.80;6.35;;;;;;;17.40;58.70;99116.59;4290474;81;28452;-87
2022/11/09 13:14:36;;;;;;;11.10;6.40;;;;;;;17.52;58.80;99123.08;4264150;82;28534;-86
2022/11/09 13:20:58;;;;;;;11.50;6.62;;;;;;;17.47;59.10;99121.73;4288989;81;28583;-82
2022/11/09 13:27:38;;;;;;;13.43;7.33;;;;;;;17.50;59.29;99131.25;4334511;81;28505;-82
2022/11/09 13:34:19;;;;;;;12.20;7.17;;;;;;;17.26;59.20;99126.38;4335211;81;28479;-83
2022/11/09 13:40:48;;;;;;;10.03;6.20;;;;;;;17.26;59.20;99126.38;4335140;81;28469;-83
2022/11/09 13:47:24;;;;;;;11.48;6.85;;;;;;;17.38;60.11;99119.31;4334837;81;28465;-83
2022/11/09 13:54:02;;;;;;;12.95;6.95;;;;;;;17.36;59.68;99118.77;4335627;81;28481;-87
2022/11/09 14:00:24;;;;;;;12.18;7.35;;;;;;;17.25;60.48;99111.99;4336187;81;28473;-85
2022/11/09 14:06:44;;;;;;;10.98;6.85;;;;;;;17.15;60.64;99120.16;4300208;81;28455;-86
2022/11/09 14:13:24;;;;;;;11.28;6.35;;;;;;;17.24;60.95;99113.09;4274090;81;28481;-84
2022/11/09 14:20:04;;;;;;;13.03;7.20;;;;;;;17.09;61.31;99106.30;4300964;81;28445;-84
2022/11/09 14:26:25;;;;;;;13.08;6.97;;;;;;;16.94;61.31;99112.52;4300363;80;28535;-87
2022/11/09 14:32:48;;;;;;;11.53;6.85;;;;;;;16.66;61.97;99118.20;4297653;80;28495;-87
2022/11/09 14:39:28;;;;;;;13.55;7.17;;;;;;;16.54;62.22;99113.02;4348906;80;28485;-86
2022/11/09 14:45:50;;;;;;;12.73;6.72;;;;;;;16.34;64.13;99112.45;4324873;80;28481;-86
2022/11/09 14:52:14;;;;;;;16.62;9.85;;;;;;;16.22;63.69;99101.02;4312390;81;28453;-87
2022/11/09 14:58:39;;;;;;;12.90;7.20;;;;;;;16.10;64.47;99099.36;4309525;80;28505;-85
2022/11/09 15:05:03;;;;;;;13.75;7.08;;;;;;;15.79;64.93;99105.16;4320343;79;28447;-88
2022/11/09 15:11:47;;;;;;;11.65;7.05;;;;;;;15.51;65.90;99114.78;4335959;79;28546;-90
2022/11/09 15:18:20;;;;;;;14.45;7.00;;;;;;;15.28;66.45;99112.74;4310963;80;28518;-89
2022/11/09 15:24:47;;;;;;;15.08;7.30;;;;;;;15.11;67.36;99114.25;4320325;79;28433;-89
2022/11/09 15:31:14;;;;;;;15.48;8.10;;;;;;;14.95;67.38;99116.03;4289021;81;28516;-90
2022/11/09 15:37:49;;;;;;;15.25;7.17;;;;;;;14.77;68.00;99109.91;4288341;80;28427;-90
2022/11/09 15:44:12;;;;;;;18.12;7.33;;;;;;;14.65;68.75;99114.65;4304429;81;28517;-89
2022/11/09 15:50:32;;;;;;;17.60;8.85;;;;;;;14.56;69.40;99116.18;4268656;81;28471;-89
2022/11/09 15:56:52;;;;;;;15.45;7.75;;;;;;;14.50;69.43;99116.66;4354166;80;28550;-86
2022/11/09 16:03:12;;;;;;;18.77;8.45;;;;;;;14.01;72.62;99117.48;4334060;80;28567;-80
2022/11/09 16:09:33;;;;;;;17.32;8.03;;;;;;;13.93;73.10;99119.55;4402796;80;28499;-83
2022/11/09 16:16:13;;;;;;;17.37;8.03;;;;;;;13.98;73.44;99117.45;4317149;80;28537;-87
2022/11/09 16:22:31;;;;;;;20.50;8.20;;;;;;;13.83;74.36;99125.34;4298169;80;28467;-89
2022/11/09 16:28:53;;;;;;;17.50;7.53;;;;;;;13.70;75.18;99122.50;4412180;80;28466;-79
2022/11/09 16:35:13;;;;;;;19.23;8.08;;;;;;;13.58;75.67;99130.15;4367968;80;28474;-81
2022/11/09 16:41:43;;;;;;;22.40;8.53;;;;;;;13.56;76.13;99128.78;4364389;80;28458;-86
2022/11/09 16:48:24;;;;;;;21.07;9.68;;;;;;;13.42;78.11;99129.63;4363695;80;28508;-87
2022/11/09 16:54:52;;;;;;;22.58;9.85;;;;;;;13.89;76.04;99133.27;4294630;80;28504;-86
2022/11/09 17:01:13;;;;;;;18.27;8.85;;;;;;;13.85;75.94;99133.50;4241965;81;28461;-87
2022/11/09 17:07:51;;;;;;;21.50;10.68;;;;;;;13.80;75.47;99134.24;4252644;80;28546;-86
2022/11/09 17:14:33;;;;;;;25.08;10.88;;;;;;;13.78;75.58;99144.48;4264370;81;28530;-87
2022/11/09 17:27:24;;;;;;;25.20;10.35;;;;;;;12.96;79.52;99165.61;4212775;81;28494;-88
2022/11/09 17:33:47;;;;;;;25.52;11.73;;;;;;;13.09;78.10;99159.09;4232850;81;28447;-87
2022/11/09 17:40:12;;;;;;;29.63;12.65;;;;;;;12.61;81.48;99163.41;4251200;81;28497;-87
2022/11/09 17:46:40;;;;;;;27.60;13.00;;;;;;;12.49;83.80;99160.75;4173117;84;28483;-88
2022/11/09 17:53:05;;;;;;;24.40;11.43;;;;;;;12.62;83.00;99170.44;4106667;84;28545;-80
2022/11/09 17:59:24;;;;;;;27.37;11.12;;;;;;;12.19;83.51;99166.38;4261301;82;28483;-84
2022/11/09 18:05:47;;;;;;;24.35;11.40;;;;;;;12.08;84.84;99163.98;4193397;84;28540;-84
2022/11/09 18:12:08;;;;;;;26.12;11.95;;;;;;;11.94;83.26;99166.09;4184469;83;28517;-82
2022/11/09 18:18:30;;;;;;;28.10;13.65;;;;;;;11.82;84.49;99177.70;4185380;83;28613;-82
2022/11/09 18:24:52;;;;;;;33.08;13.88;;;;;;;11.51;88.55;99181.59;4184971;83;28487;-81
2022/11/09 18:31:13;;;;;;;31.42;14.10;;;;;;;11.68;88.67;99184.40;4139223;85;28560;-82
2022/11/09 18:37:37;;;;;;;30.08;12.37;;;;;;;11.56;89.92;99187.91;4173464;85;28491;-82
2022/11/09 18:43:57;;;;;;;31.95;13.25;;;;;;;11.41;88.18;99189.72;4175849;83;28511;-86
2022/11/09 18:50:18;;;;;;;30.12;12.68;;;;;;;11.53;88.86;99192.39;4207750;83;28558;-86
2022/11/09 18:56:37;;;;;;;27.15;12.33;;;;;;;11.33;88.66;99194.60;4196356;83;28550;-86
2022/11/09 19:02:58;;;;;;;25.97;12.40;;;;;;;11.17;84.50;99187.52;4196949;83;28518;-90
2022/11/09 19:09:37;;;;;;;27.15;11.85;;;;;;;11.13;87.01;99191.70;4194623;83;28471;-84
2022/11/09 19:15:59;;;;;;;31.07;13.55;;;;;;;10.87;86.88;99189.72;4150244;84;28517;-83
2022/11/09 19:22:19;;;;;;;28.65;14.30;;;;;;;11.30;84.08;99185.95;4196949;83;28476;-82
2022/11/09 19:28:39;;;;;;;32.15;15.20;;;;;;;11.36;83.74;99194.16;4192806;83;28553;-81
2022/11/09 19:34:58;;;;;;;27.85;14.73;;;;;;;10.79;86.48;99190.04;4181629;83;28551;-76
2022/11/09 19:41:18;;;;;;;30.85;14.25;;;;;;;10.38;90.77;99183.02;4156942;85;28596;-76
2022/11/09 19:47:38;;;;;;;31.60;15.70;;;;;;;10.14;89.81;99185.05;4166646;83;28493;-84
2022/11/09 19:54:03;;;;;;;37.45;19.07;;;;;;;10.22;88.98;99186.59;4199227;83;28520;-83
2022/11/09 20:00:26;;;;;;;36.58;18.00;;;;;;;10.97;88.21;99186.46;4146227;83;28566;-83
2022/11/09 20:06:49;;;;;;;41.65;19.00;;;;;;;10.75;88.31;99184.30;4145003;84;28520;-82
2022/11/09 20:13:09;;;;;;;38.38;18.50;;;;;;;10.88;89.51;99180.09;4160907;84;28544;-78
2022/11/09 20:19:29;;;;;;;31.93;16.70;;;;;;;10.80;89.21;99191.17;4162003;84;28476;-79
2022/11/09 20:25:48;;;;;;;28.07;14.20;;;;;;;10.03;88.59;99185.80;4141898;84;28567;-80
2022/11/09 20:32:08;;;;;;;34.00;16.07;;;;;;;9.67;89.28;99177.99;4146591;84;28518;-82
2022/11/09 20:38:28;;;;;;;37.40;19.35;;;;;;;9.65;88.97;99183.60;4141821;84;28505;-80
2022/11/09 20:44:48;;;;;;;41.60;18.52;;;;;;;9.67;93.45;99186.88;4147683;84;28546;-80
2022/11/09 20:51:11;;;;;;;36.38;16.82;;;;;;;9.61;93.95;99189.94;4139839;84;28594;-78
2022/11/09 20:57:30;;;;;;;35.73;17.90;;;;;;;9.71;94.13;99193.44;4156369;84;28557;-79
2022/11/09 21:03:51;;;;;;;30.55;15.48;;;;;;;9.73;91.42;99185.98;4166265;85;28575;-78
2022/11/09 21:10:11;;;;;;;42.83;20.72;;;;;;;9.78;86.89;99195.25;4178809;84;28486;-77
2022/11/09 21:16:30;;;;;;;39.63;19.70;;;;;;;9.84;91.35;99187.63;4294689;81;28497;-77
2022/11/09 21:29:51;;;;;;;48.42;23.02;;;;;;;9.61;90.22;99197.98;4270419;82;28463;-81
2022/11/09 21:36:13;;;;;;;38.92;18.82;;;;;;;10.38;88.38;99205.86;4270570;81;28479;-77
2022/11/09 21:42:33;;;;;;;33.80;17.70;;;;;;;9.91;87.55;99216.59;4299355;81;28545;-77
2022/11/09 21:48:53;;;;;;;31.07;16.48;;;;;;;9.55;85.96;99218.19;4302198;81;28468;-79
2022/11/09 21:55:13;;;;;;;38.60;18.30;;;;;;;9.51;82.69;99231.72;4303122;80;28527;-79
2022/11/09 22:01:34;;;;;;;44.93;20.65;;;;;;;9.45;87.15;99237.45;4315187;80;28554;-82
2022/11/09 22:07:54;;;;;;;40.52;20.43;;;;;;;9.29;88.75;99240.14;4301476;81;28569;-80
2022/11/09 22:20:55;;;;;;;34.83;17.77;;;;;;;9.39;86.13;99233.78;4347811;79;29211;-77
2022/11/09 22:27:15;;;;;;;39.75;18.67;;;;;;;9.20;83.50;99240.41;4355557;79;28500;-79
2022/11/09 22:33:35;;;;;;;46.85;24.15;;;;;;;9.08;84.96;99254.21;4356360;80;28489;-80
2022/11/09 22:39:55;;;;;;;51.00;25.50;;;;;;;8.79;87.67;99254.59;4356316;80;28535;-79
2022/11/09 22:46:16;;;;;;;44.60;23.22;;;;;;;8.73;88.69;99251.41;4355887;80;28494;-80
2022/11/09 22:52:35;;;;;;;41.80;20.17;;;;;;;8.97;87.04;99246.35;4356278;79;28491;-79
2022/11/09 22:58:56;;;;;;;44.45;22.67;;;;;;;8.73;86.18;99255.96;4341100;81;28532;-80
2022/11/09 23:05:15;;;;;;;39.05;20.35;;;;;;;8.62;87.05;99255.59;4336433;79;28494;-82
2022/11/09 23:11:35;;;;;;;43.63;21.87;;;;;;;8.83;84.92;99256.83;4330466;79;28465;-81
2022/11/09 23:31:12;;;;;;;61.10;30.52;;;;;;;8.69;92.45;99265.45;4265973;82;28524;-81
2022/11/09 23:37:34;;;;;;;68.87;33.00;;;;;;;8.74;93.84;99273.16;4319649;82;28465;-82
2022/11/09 23:43:54;;;;;;;56.90;28.47;;;;;;;8.75;94.32;99284.21;4319541;82;28457;-82
2022/11/09 23:50:14;;;;;;;56.63;28.55;;;;;;;8.71;92.48;99287.53;4319433;82;28481;-82
2022/11/09 23:56:34;;;;;;;59.63;29.20;;;;;;;8.94;92.80;99297.71;4319660;82;28516;-81
